TimeCST,TemperatureF,Dew PointF,Humidity,Sea Level PressureIn,VisibilityMPH,Wind Direction,Wind SpeedMPH,Gust SpeedMPH,PrecipitationIn,Events,Conditions,WindDirDegrees,DateUTC
12:53 AM,30.0,28.0,92,30.44,10.0,Calm,Calm,-,N/A,,Clear,0,2013-11-14 06:53:00
1:53 AM,28.9,28.0,96,30.44,10.0,Calm,Calm,-,N/A,,Clear,0,2013-11-14 07:53:00
2:53 AM,27.0,26.1,96,30.43,5.0,Calm,Calm,-,N/A,,Clear,0,2013-11-14 08:53:00
3:16 AM,28.4,26.6,93,30.42,1.5,Calm,Calm,-,N/A,,Clear,0,2013-11-14 09:16:00
3:31 AM,28.4,26.6,93,30.42,3.0,Calm,Calm,-,N/A,,Clear,0,2013-11-14 09:31:00
3:53 AM,26.1,25.0,96,30.42,8.0,Calm,Calm,-,N/A,,Clear,0,2013-11-14 09:53:00
4:10 AM,26.6,26.6,100,30.42,2.5,Calm,Calm,-,N/A,,Clear,0,2013-11-14 10:10:00
4:30 AM,26.6,24.8,93,30.42,5.0,Calm,Calm,-,N/A,,Clear,0,2013-11-14 10:30:00
4:53 AM,27.0,26.1,96,30.41,6.0,Calm,Calm,-,N/A,,Clear,0,2013-11-14 10:53:00
5:02 AM,26.6,24.8,93,30.41,1.8,Calm,Calm,-,N/A,,Clear,0,2013-11-14 11:02:00
5:09 AM,26.6,24.8,93,30.41,3.0,Calm,Calm,-,N/A,,Clear,0,2013-11-14 11:09:00
5:35 AM,26.6,24.8,93,30.41,2.0,Calm,Calm,-,N/A,,Clear,0,2013-11-14 11:35:00
5:42 AM,24.8,24.8,100,30.41,0.8,Calm,Calm,-,N/A,,Clear,0,2013-11-14 11:42:00
5:53 AM,26.1,24.1,92,30.41,1.8,Calm,Calm,-,N/A,,Clear,0,2013-11-14 11:53:00
6:00 AM,24.8,24.8,100,30.41,2.0,Calm,Calm,-,N/A,,Clear,0,2013-11-14 12:00:00
6:12 AM,24.8,23.0,93,30.41,5.0,Calm,Calm,-,N/A,,Clear,0,2013-11-14 12:12:00
6:53 AM,26.1,25.0,96,30.41,7.0,Calm,Calm,-,N/A,,Clear,0,2013-11-14 12:53:00
7:53 AM,32.0,30.0,92,30.42,10.0,Calm,Calm,-,N/A,,Clear,0,2013-11-14 13:53:00
8:53 AM,42.1,30.0,62,30.42,10.0,East,4.6,-,N/A,,Clear,90,2013-11-14 14:53:00
9:53 AM,48.0,28.9,48,30.40,10.0,Variable,3.5,-,N/A,,Clear,0,2013-11-14 15:53:00
10:53 AM,52.0,26.1,37,30.37,10.0,Variable,5.8,-,N/A,,Clear,0,2013-11-14 16:53:00
11:53 AM,55.9,21.9,27,30.32,10.0,South,6.9,-,N/A,,Clear,180,2013-11-14 17:53:00
12:53 PM,57.9,23.0,26,30.28,10.0,South,9.2,-,N/A,,Clear,170,2013-11-14 18:53:00
1:53 PM,59.0,26.1,28,30.25,10.0,South,4.6,-,N/A,,Clear,180,2013-11-14 19:53:00
2:53 PM,60.1,25.0,26,30.23,10.0,Calm,Calm,-,N/A,,Clear,0,2013-11-14 20:53:00
3:53 PM,57.0,28.9,34,30.21,10.0,Calm,Calm,-,N/A,,Clear,0,2013-11-14 21:53:00
4:53 PM,51.1,36.0,56,30.20,10.0,Calm,Calm,-,N/A,,Clear,0,2013-11-14 22:53:00
5:53 PM,46.9,36.0,66,30.19,10.0,Calm,Calm,-,N/A,,Clear,0,2013-11-14 23:53:00
6:53 PM,45.0,37.0,74,30.18,10.0,Calm,Calm,-,N/A,,Clear,0,2013-11-15 00:53:00
7:53 PM,45.0,37.0,74,30.18,10.0,Calm,Calm,-,N/A,,Clear,0,2013-11-15 01:53:00
8:53 PM,46.0,39.0,76,30.19,10.0,Calm,Calm,-,N/A,,Mostly Cloudy,0,2013-11-15 02:53:00
9:53 PM,46.0,39.9,79,30.20,10.0,Calm,Calm,-,N/A,,Mostly Cloudy,0,2013-11-15 03:53:00
10:53 PM,44.1,37.9,79,30.17,10.0,Calm,Calm,-,N/A,,Scattered Clouds,0,2013-11-15 04:53:00
11:53 PM,42.1,37.9,85,30.16,10.0,Calm,Calm,-,N/A,,Scattered Clouds,0,2013-11-15 05:53:00